Flight Track Log - Related Links

Times and Time Zones

All times are in EDT time to prevent confusion due to time zone crossing. See the N53569 flight status page for this flight to view local times or setup timezone preferences in your user account.

Time Position Orientation Groundspeed Altitude Reporting Facility
EDT Latitude Longitude Course Direction KTS MPH feet Rate Location/Type
Tue 04:58:02 PM 42.7167 -71.1333 304° West 72 83 600  Level KA90
Tue 04:59:08 PM 42.7333 -71.1667 304° West 86 99 1,600 714 Climbing KA90
Tue 05:00:08 PM 42.7500 -71.2000 304° West 100 115 2,100 200 Climbing KA90
Tue 05:01:08 PM 42.7500 -71.2333 270° West 109 125 2,000 -50 Descending KA90
Tue 05:02:08 PM 42.7167 -71.2667 216° Southwest 108 124 2,000 50 Level KA90
Tue 05:03:08 PM 42.7000 -71.2833 216° Southwest 109 125 2,100 50 Climbing KA90
Tue 05:04:08 PM 42.6833 -71.3167 236° Southwest 113 130 2,100 -50 Level KA90
Tue 05:05:08 PM 42.6500 -71.3500 216° Southwest 109 125 2,000 -50 Descending KA90
Tue 05:06:08 PM 42.6333 -71.3667 216° Southwest 109 125 2,000 53 Level KA90
Tue 05:07:02 PM 42.6167 -71.4000 236° Southwest 111 128 2,100 53 Climbing KA90
Tue 05:08:02 PM 42.6000 -71.4333 236° Southwest 109 125 2,100 -48 Level KA90
Tue 05:09:08 PM 42.5667 -71.4667 216° Southwest 123 142 2,000  Descending KA90
Tue 05:10:02 PM 42.5500 -71.4833 216° Southwest 103 119 2,100  Climbing KA90
Tue 05:11:14 PM 42.5167 -71.4833 180° South 108 124 2,000 -43 Descending KA90
Tue 05:12:20 PM 42.5000 -71.4500 124° Southeast 108 124 2,000  Level KA90
Tue 05:13:08 PM 42.4833 -71.4167 124° Southeast 113 130 2,000 -278 Level KA90
Tue 05:14:08 PM 42.4833 -71.3833 90° East 91 105 1,500 -500 Descending KA90
Tue 05:15:08 PM 42.4833 -71.3500 90° East 85 98 1,000 -429 Descending KA90
Tue 05:16:14 PM 42.4667 -71.3167 124° Southeast 83 96 600 -364 Descending KA90
Tue 05:18:00 PM 42.4667 -71.2833 109° East  Level FlightAware Approximate
Tue 05:25:00 PM 42.4699 -71.2890 109° East  Level Estimated
Tue 05:26:00 PM 42.4667 -71.2833 109° East  Level FlightAware Approximate

Login

Don't have an account? Register now (free) for customized features, flight alerts, and more!